Weather History for KHSP - February, 2011

Change the Weather History Date:

Wednesday, February 2, 2011

  Actual Average Record
Temperature  
Mean Temperature 34 °F -  
Max Temperature 48 °F 34 °F 50 °F (2006)
Min Temperature 21 °F 20 °F 3 °F (2013)
Degree Days  
Heating Degree Days 30    
Moisture  
Dew Point 35 °F    
Average Humidity 85    
Maximum Humidity 100    
Minimum Humidity 60    
Precipitation  
Precipitation 0.00 in - - ()
Sea Level Pressure  
Sea Level Pressure 29.80 in    
Wind  
Wind Speed 17 mph (SW)    
Max Wind Speed 32 mph    
Max Gust Speed 45 mph    
Visibility 7 miles    
Events      
Averages and records for this station are not official NWS values.
T = Trace of Precipitation, MM = Missing Value Source: NWS Daily Summary

Daily Weather History Graph

Daily Weather History Graph

Search for Another Location

Airport or City:

Trip Planner

Search our weather history database for the weather conditions in past years. The results will help you decide how hot, cold, wet, or windy it might be!

Date:

Astronomy

Feb. 02, 2011 Rise Set
Actual Time 7:23 AM EST 5:43 PM EST
Civil Twilight 6:55 AM EST 6:11 PM EST
Nautical Twilight 6:23 AM EST 6:42 PM EST
Astronomical Twilight 5:53 AM EST 7:13 PM EST
Moon 6:53 AM EST (2/2) 5:36 PM EST (2/2)
Length of Visible Light 11h 15m
Length of Day
10h 20m
Waning Crescent, 0% of the Moon is Illuminated
Feb 2
Waning Crescent
Feb 2
New
Feb 11
First Quarter
Feb 18
Full
Feb 24
Last Quarter

Hourly Weather History & Observations

Time (EST) Temp. Windchill Dew Point Humidity Pressure Visibility Wind Dir Wind Speed Gust Speed Precip Events Conditions
12:00 AM 35.6 °F 28.6 °F 35.6 °F 100% 29.88 in 0.2 mi South 9.2 mph 19.6 mph N/A   Overcast
12:20 AM 37.4 °F 28.5 °F 37.4 °F 100% 29.86 in 0.2 mi SSE 15.0 mph 24.2 mph N/A   Overcast
12:40 AM 35.6 °F 28.6 °F 35.6 °F 100% 29.85 in 0.2 mi SSE 9.2 mph - N/A   Overcast
1:00 AM 37.4 °F 28.5 °F 37.4 °F 100% 29.84 in 0.2 mi South 15.0 mph 18.4 mph N/A   Overcast
1:20 AM 37.4 °F 28.5 °F 37.4 °F 100% 29.83 in 0.2 mi South 15.0 mph 24.2 mph N/A   Overcast
1:40 AM 37.4 °F 28.2 °F 37.4 °F 100% 29.77 in 0.2 mi SSE 16.1 mph 23.0 mph N/A   Overcast
2:00 AM 37.4 °F 27.5 °F 37.4 °F 100% 29.77 in 0.2 mi SSE 18.4 mph 25.3 mph N/A   Overcast
2:20 AM 37.4 °F 28.5 °F 37.4 °F 100% 29.77 in 0.2 mi SSE 15.0 mph 25.3 mph N/A   Overcast
2:40 AM 39.2 °F 32.0 °F 39.2 °F 100% 29.76 in 0.2 mi South 11.5 mph 18.4 mph N/A   Overcast
3:00 AM 39.2 °F 30.5 °F 39.2 °F 100% 29.75 in 0.2 mi South 16.1 mph 25.3 mph N/A   Overcast
3:20 AM 41.0 °F 32.2 °F 41.0 °F 100% 29.76 in 0.2 mi South 18.4 mph 28.8 mph N/A   Overcast
3:40 AM 41.0 °F 31.9 °F 41.0 °F 100% 29.76 in 0.2 mi South 19.6 mph 29.9 mph N/A   Overcast
4:00 AM 42.8 °F 34.8 °F 42.8 °F 100% 29.76 in 0.2 mi SSW 17.3 mph 24.2 mph N/A   Overcast
4:20 AM 44.6 °F 37.4 °F 44.6 °F 100% 29.76 in 0.2 mi SSW 16.1 mph 24.2 mph N/A   Overcast
4:40 AM 44.6 °F 37.8 °F 44.6 °F 100% 29.75 in 0.2 mi SSW 15.0 mph 26.5 mph N/A   Overcast
5:00 AM 44.6 °F 37.4 °F 44.6 °F 100% 29.74 in 0.2 mi SSW 16.1 mph 25.3 mph N/A   Overcast
5:20 AM 44.6 °F 37.4 °F 44.6 °F 100% 29.74 in 0.2 mi SSW 16.1 mph 25.3 mph N/A   Overcast
5:40 AM 44.6 °F 38.8 °F 44.6 °F 100% 29.74 in 1.2 mi SSW 11.5 mph 18.4 mph N/A   Overcast
6:00 AM 44.6 °F 39.7 °F 44.6 °F 100% 29.74 in 3.0 mi SW 9.2 mph 16.1 mph N/A   Overcast
6:20 AM 44.6 °F 38.1 °F 44.6 °F 100% 29.74 in 10.0 mi SW 13.8 mph 21.9 mph N/A   Mostly Cloudy
6:40 AM 44.6 °F 36.6 °F 44.6 °F 100% 29.75 in 10.0 mi SW 19.6 mph 25.3 mph N/A   Scattered Clouds
7:00 AM 44.6 °F 37.4 °F 44.6 °F 100% 29.75 in 10.0 mi SW 16.1 mph 25.3 mph N/A   Clear
7:20 AM 44.6 °F 36.6 °F 44.6 °F 100% 29.74 in 10.0 mi SW 19.6 mph 28.8 mph N/A   Clear
7:40 AM 44.6 °F 37.2 °F 44.6 °F 100% 29.74 in 10.0 mi WSW 17.3 mph 28.8 mph N/A   Clear
8:00 AM 44.6 °F 37.2 °F 44.6 °F 100% 29.75 in 10.0 mi WSW 17.3 mph 25.3 mph N/A   Mostly Cloudy
8:20 AM 46.4 °F 39.5 °F 44.6 °F 93% 29.75 in 10.0 mi WSW 17.3 mph 25.3 mph N/A   Overcast
8:40 AM 44.6 °F 37.4 °F 44.6 °F 100% 29.75 in 10.0 mi WSW 16.1 mph 25.3 mph N/A   Overcast
9:00 AM 46.4 °F 39.0 °F 44.6 °F 93% 29.75 in 10.0 mi WSW 19.6 mph 31.1 mph N/A   Overcast
9:20 AM 46.4 °F 37.9 °F 42.8 °F 87% 29.75 in 10.0 mi WSW 25.3 mph 39.1 mph N/A   Mostly Cloudy
9:40 AM 46.4 °F 38.1 °F 42.8 °F 87% 29.75 in 10.0 mi WSW 24.2 mph 35.7 mph N/A   Mostly Cloudy
10:00 AM 46.4 °F 38.1 °F 41.0 °F 81% 29.76 in 10.0 mi WSW 24.2 mph 35.7 mph N/A   Mostly Cloudy
10:20 AM 46.4 °F 37.7 °F 39.2 °F 76% 29.76 in 10.0 mi WSW 26.5 mph 33.4 mph N/A   Scattered Clouds
10:40 AM 46.4 °F 38.3 °F 39.2 °F 76% 29.76 in 10.0 mi WSW 23.0 mph 31.1 mph N/A   Scattered Clouds
11:00 AM 46.4 °F 39.5 °F 39.2 °F 76% 29.76 in 10.0 mi WSW 17.3 mph 33.4 mph N/A   Scattered Clouds
11:20 AM 48.2 °F - 37.4 °F 66% 29.76 in 10.0 mi WSW 19.6 mph 33.4 mph N/A   Scattered Clouds
12:20 PM 48.2 °F - 37.4 °F 66% 29.74 in 10.0 mi West 21.9 mph 34.5 mph N/A   Overcast
12:40 PM 46.4 °F 39.5 °F 35.6 °F 66% 29.75 in 10.0 mi West 17.3 mph 31.1 mph N/A   Overcast
1:00 PM 46.4 °F 38.3 °F 33.8 °F 62% 29.76 in 10.0 mi West 23.0 mph 44.9 mph N/A   Mostly Cloudy
1:20 PM 44.6 °F 36.9 °F 33.8 °F 66% 29.77 in 10.0 mi West 18.4 mph 35.7 mph N/A   Mostly Cloudy
1:40 PM 42.8 °F 33.8 °F 33.8 °F 70% 29.78 in 10.0 mi West 21.9 mph 39.1 mph N/A   Mostly Cloudy
2:00 PM 42.8 °F 32.7 °F 33.8 °F 70% 29.79 in 10.0 mi West 27.6 mph 35.7 mph N/A   Mostly Cloudy
2:20 PM 41.0 °F 30.2 °F 30.2 °F 65% 29.80 in 10.0 mi West 27.6 mph 36.8 mph N/A   Mostly Cloudy
2:40 PM 39.2 °F 27.6 °F 28.4 °F 65% 29.81 in 10.0 mi West 28.8 mph 39.1 mph N/A   Scattered Clouds
3:00 PM 37.4 °F 25.2 °F 26.6 °F 65% 29.83 in 10.0 mi WSW 28.8 mph 42.6 mph N/A   Scattered Clouds
3:20 PM 37.4 °F 26.4 °F 26.6 °F 65% 29.84 in 10.0 mi West 23.0 mph 35.7 mph N/A   Scattered Clouds
3:40 PM 35.6 °F 24.0 °F 24.8 °F 65% 29.84 in 10.0 mi West 23.0 mph 32.2 mph N/A   Scattered Clouds
4:00 PM 33.8 °F 21.0 °F 21.2 °F 60% 29.84 in 10.0 mi West 25.3 mph 40.3 mph N/A   Scattered Clouds
4:20 PM 32.0 °F 17.9 °F 19.4 °F 60% 29.87 in 10.0 mi West 28.8 mph 44.9 mph N/A   Clear
4:40 PM 30.2 °F 14.7 °F 19.4 °F 64% 29.88 in 10.0 mi West 32.2 mph 41.4 mph N/A   Clear
5:00 PM 28.4 °F 13.5 °F 19.4 °F 69% 29.90 in 10.0 mi West 26.5 mph 38.0 mph N/A   Clear
5:20 PM 28.4 °F 14.4 °F 19.4 °F 69% 29.93 in 10.0 mi West 23.0 mph 36.8 mph N/A   Scattered Clouds
5:40 PM 26.6 °F 11.1 °F 17.6 °F 69% 29.94 in 10.0 mi West 26.5 mph 38.0 mph N/A   Scattered Clouds
6:00 PM 24.8 °F 10.0 °F 17.6 °F 74% 29.95 in 10.0 mi West 21.9 mph 36.8 mph N/A   Scattered Clouds
6:20 PM 23.0 °F 5.4 °F 17.6 °F 80% 29.96 in 10.0 mi WNW 29.9 mph 39.1 mph N/A   Scattered Clouds
6:40 PM 21.2 °F 3.3 °F 17.6 °F 86% 29.97 in 10.0 mi WNW 28.8 mph 39.1 mph N/A   Scattered Clouds
7:00 PM 21.2 °F 2.7 °F 15.8 °F 80% 29.97 in 10.0 mi WNW 31.1 mph 42.6 mph N/A   Scattered Clouds
7:20 PM 21.2 °F 3.3 °F 15.8 °F 80% 29.99 in 10.0 mi West 28.8 mph 43.7 mph N/A   Mostly Cloudy
7:40 PM 19.4 °F 1.1 °F 15.8 °F 86% 29.99 in 10.0 mi West 27.6 mph 39.1 mph N/A   Mostly Cloudy
8:00 PM 19.4 °F 0.5 °F 12.2 °F 74% 30.00 in 10.0 mi West 29.9 mph 43.7 mph N/A   Scattered Clouds
8:20 PM 19.4 °F -0.3 °F 12.2 °F 74% 30.00 in 10.0 mi West 33.4 mph 43.7 mph N/A   Scattered Clouds
8:40 PM 17.6 °F -1.9 °F 12.2 °F 79% 30.00 in 10.0 mi WNW 29.9 mph 39.1 mph N/A   Scattered Clouds
9:00 PM 17.6 °F -1.0 °F 12.2 °F 79% 30.01 in 10.0 mi West 26.5 mph 44.9 mph N/A   Scattered Clouds
9:20 PM 17.6 °F -0.6 °F 12.2 °F 79% 30.02 in 10.0 mi West 25.3 mph 40.3 mph N/A   Scattered Clouds
9:40 PM 17.6 °F -1.0 °F 12.2 °F 79% 30.03 in 10.0 mi WNW 26.5 mph 39.1 mph N/A   Mostly Cloudy
10:00 PM 17.6 °F -0.6 °F 12.2 °F 79% 30.05 in 10.0 mi WNW 25.3 mph 35.7 mph N/A   Mostly Cloudy
10:20 PM 17.6 °F -1.3 °F 12.2 °F 79% 30.06 in 10.0 mi WNW 27.6 mph 36.8 mph N/A   Overcast
10:40 PM 17.6 °F -0.6 °F 12.2 °F 79% 30.07 in 10.0 mi WNW 25.3 mph 36.8 mph N/A   Overcast
11:00 PM 15.8 °F -3.1 °F 12.2 °F 86% 30.07 in 10.0 mi WNW 25.3 mph 34.5 mph N/A   Overcast
11:20 PM 15.8 °F -2.7 °F 12.2 °F 86% 30.07 in 10.0 mi WNW 24.2 mph 39.1 mph N/A   Overcast
11:40 PM 15.8 °F -5.8 °F 12.2 °F 86% 30.07 in 10.0 mi WNW 35.7 mph 42.6 mph N/A   Overcast